createdAt,value
2019-04-03T00:00:23.641Z,0
2019-04-03T00:01:23.740Z,0
2019-04-03T00:02:23.872Z,0
2019-04-03T00:03:23.984Z,0
2019-04-03T00:04:24.079Z,0
2019-04-03T00:05:24.214Z,0
2019-04-03T00:06:24.281Z,0
2019-04-03T00:07:24.377Z,0
2019-04-03T00:08:24.503Z,0
2019-04-03T00:09:23.614Z,0
2019-04-03T00:10:24.801Z,0
2019-04-03T00:11:23.846Z,0
2019-04-03T00:12:23.993Z,0
2019-04-03T00:13:24.145Z,0
2019-04-03T00:14:24.251Z,0
2019-04-03T00:15:24.356Z,0
2019-04-03T00:16:24.458Z,0
2019-04-03T00:17:24.579Z,0
2019-04-03T00:18:24.703Z,0
2019-04-03T00:19:24.852Z,0
2019-04-03T00:20:25.004Z,0
2019-04-03T00:21:25.277Z,0
2019-04-03T00:22:25.101Z,0
2019-04-03T00:23:25.235Z,0
2019-04-03T00:24:25.364Z,0
2019-04-03T00:25:25.537Z,0
2019-04-03T00:26:25.569Z,0
2019-04-03T00:27:25.498Z,0
2019-04-03T00:28:25.617Z,0
2019-04-03T00:29:25.713Z,0
2019-04-03T00:30:25.856Z,0
2019-04-03T00:31:25.953Z,0
2019-04-03T00:32:26.020Z,0
2019-04-03T00:33:26.141Z,0
2019-04-03T00:34:27.283Z,0
2019-04-03T00:35:26.342Z,0
2019-04-03T00:36:26.435Z,0
2019-04-03T00:37:26.528Z,0
2019-04-03T00:38:26.741Z,0
2019-04-03T00:39:26.755Z,0
2019-04-03T00:40:26.858Z,0
2019-04-03T00:41:26.950Z,0
2019-04-03T00:42:27.039Z,0
2019-04-03T00:43:27.152Z,0
2019-04-03T00:44:27.248Z,0
2019-04-03T00:45:27.338Z,0
2019-04-03T00:46:27.487Z,0
2019-04-03T00:47:27.756Z,0
2019-04-03T00:48:27.735Z,0
2019-04-03T00:49:27.822Z,0
2019-04-03T00:50:27.934Z,0
2019-04-03T00:51:28.079Z,0
2019-04-03T00:52:28.149Z,0
2019-04-03T00:53:28.326Z,0
2019-04-03T00:54:30.646Z,0
2019-04-03T00:55:28.433Z,0
2019-04-03T00:56:28.548Z,0
2019-04-03T00:57:28.650Z,0
2019-04-03T00:58:28.753Z,0
2019-04-03T00:59:28.798Z,0
2019-04-03T01:00:28.879Z,0
2019-04-03T01:01:28.902Z,0
2019-04-03T01:02:28.955Z,0
2019-04-03T01:03:29.124Z,0
2019-04-03T01:04:29.148Z,0
2019-04-03T01:05:29.202Z,0
2019-04-03T01:06:29.221Z,0
2019-04-03T01:07:29.775Z,0
2019-04-03T01:08:29.699Z,0
2019-04-03T01:09:29.943Z,0
2019-04-03T01:10:30.176Z,0
2019-04-03T01:11:30.512Z,0
2019-04-03T01:12:31.199Z,0
2019-04-03T01:13:31.214Z,0
2019-04-03T01:14:31.225Z,0
2019-04-03T01:15:31.514Z,0
2019-04-03T01:16:32.261Z,0
2019-04-03T01:17:30.207Z,0
2019-04-03T01:18:30.057Z,0
2019-04-03T01:19:30.014Z,0
2019-04-03T01:20:30.157Z,0
2019-04-03T01:21:30.179Z,0
2019-04-03T01:22:30.444Z,0
2019-04-03T01:23:30.414Z,0
2019-04-03T01:24:30.310Z,0
2019-04-03T01:25:30.537Z,0
2019-04-03T01:26:31.423Z,0
2019-04-03T01:27:31.488Z,0
2019-04-03T01:28:31.612Z,0
2019-04-03T01:29:31.715Z,0
2019-04-03T01:30:31.866Z,0
2019-04-03T01:31:30.873Z,0
2019-04-03T01:32:31.001Z,0
2019-04-03T01:33:31.218Z,0
2019-04-03T01:34:31.243Z,0
2019-04-03T01:35:31.481Z,0
2019-04-03T01:36:31.525Z,0
2019-04-03T01:37:31.518Z,0
2019-04-03T01:38:31.607Z,0
2019-04-03T01:39:31.591Z,0
2019-04-03T01:40:31.802Z,0
2019-04-03T01:41:31.638Z,0
2019-04-03T01:42:31.774Z,0
2019-04-03T01:43:31.910Z,0
2019-04-03T01:44:31.934Z,0
2019-04-03T01:45:32.020Z,0
2019-04-03T01:46:32.143Z,0
2019-04-03T01:47:32.293Z,0
2019-04-03T01:48:32.578Z,0
2019-04-03T01:49:32.422Z,0
2019-04-03T01:50:32.427Z,0
2019-04-03T01:51:32.561Z,0
2019-04-03T01:52:32.565Z,0
2019-04-03T01:53:33.224Z,0
2019-04-03T01:54:33.669Z,0
2019-04-03T01:55:34.455Z,0
2019-04-03T01:56:33.800Z,0
2019-04-03T01:57:32.872Z,0
2019-04-03T01:58:33.037Z,0
2019-04-03T01:59:33.025Z,0
2019-04-03T02:00:33.102Z,0
2019-04-03T02:01:33.315Z,0
2019-04-03T02:02:33.245Z,0
2019-04-03T02:03:33.740Z,0
2019-04-03T02:04:33.531Z,0
2019-04-03T02:05:33.627Z,0
2019-04-03T02:06:34.692Z,0
2019-04-03T02:07:34.760Z,0
2019-04-03T02:08:34.912Z,0
2019-04-03T02:09:34.881Z,0
2019-04-03T02:10:34.952Z,0
2019-04-03T02:11:34.071Z,0
2019-04-03T02:12:34.086Z,0
2019-04-03T02:13:34.378Z,0
2019-04-03T02:14:34.377Z,0
2019-04-03T02:15:34.412Z,0
2019-04-03T02:16:34.550Z,0
2019-04-03T02:17:34.645Z,0
2019-04-03T02:18:34.758Z,0
2019-04-03T02:19:34.831Z,0
2019-04-03T02:20:34.932Z,0
2019-04-03T02:21:35.041Z,0
2019-04-03T02:22:35.101Z,0
2019-04-03T02:23:35.202Z,0
2019-04-03T02:24:35.396Z,0
2019-04-03T02:25:35.289Z,0
2019-04-03T02:26:35.348Z,0
2019-04-03T02:27:35.415Z,0
2019-04-03T02:28:35.531Z,0
2019-04-03T02:29:35.628Z,0
2019-04-03T02:30:35.843Z,0
2019-04-03T02:31:36.763Z,0
2019-04-03T02:32:35.873Z,0
2019-04-03T02:33:36.120Z,0
2019-04-03T02:34:36.347Z,0
2019-04-03T02:35:38.728Z,0
2019-04-03T02:36:36.128Z,0
2019-04-03T02:37:37.206Z,0
2019-04-03T02:38:37.201Z,0
2019-04-03T02:39:36.165Z,0
2019-04-03T02:40:36.218Z,0
2019-04-03T02:41:37.145Z,0
2019-04-03T02:42:40.198Z,0
2019-04-03T02:43:36.629Z,0
2019-04-03T02:44:37.604Z,0
2019-04-03T02:45:36.601Z,0
2019-04-03T02:46:36.656Z,0
2019-04-03T02:47:36.822Z,0
2019-04-03T02:48:38.227Z,0
2019-04-03T02:49:36.865Z,0
2019-04-03T02:50:36.917Z,0
2019-04-03T02:51:38.163Z,0
2019-04-03T02:52:37.205Z,0
2019-04-03T02:53:37.107Z,0
2019-04-03T02:54:37.157Z,0
2019-04-03T02:55:39.684Z,0
2019-04-03T02:56:37.263Z,0
2019-04-03T02:57:37.287Z,0
2019-04-03T02:58:38.349Z,0
2019-04-03T02:59:37.431Z,0
2019-04-03T03:00:37.534Z,0
2019-04-03T03:01:39.511Z,0
2019-04-03T03:02:37.698Z,0
2019-04-03T03:03:37.924Z,0
2019-04-03T03:04:38.848Z,0
2019-04-03T03:05:37.911Z,0
2019-04-03T03:06:37.984Z,0
2019-04-03T03:07:38.003Z,0
2019-04-03T03:08:40.196Z,0
2019-04-03T03:09:38.058Z,0
2019-04-03T03:10:39.225Z,0
2019-04-03T03:11:39.422Z,0
2019-04-03T03:12:38.308Z,0
2019-04-03T03:13:38.353Z,0
2019-04-03T03:14:39.750Z,0
2019-04-03T03:15:38.574Z,0
2019-04-03T03:16:38.617Z,0
2019-04-03T03:17:39.737Z,0
2019-04-03T03:18:38.838Z,0
2019-04-03T03:19:39.005Z,0
2019-04-03T03:20:40.433Z,0
2019-04-03T03:21:39.444Z,0
2019-04-03T03:22:39.028Z,0
2019-04-03T03:23:40.005Z,0
2019-04-03T03:24:39.056Z,0
2019-04-03T03:25:39.047Z,0
2019-04-03T03:26:39.034Z,0
2019-04-03T03:27:41.566Z,0
2019-04-03T03:28:39.475Z,0
2019-04-03T03:29:39.379Z,0
2019-04-03T03:30:46.285Z,0
2019-04-03T03:32:01.081Z,0
2019-04-03T03:32:40.872Z,0
2019-04-03T03:33:41.469Z,0
2019-04-03T03:34:56.388Z,0
2019-04-03T03:35:45.177Z,0
2019-04-03T03:36:41.525Z,0
2019-04-03T03:37:41.120Z,0
2019-04-03T03:38:40.655Z,0
2019-04-03T03:39:42.190Z,0
2019-04-03T03:40:40.333Z,0
2019-04-03T03:41:41.547Z,0
2019-04-03T03:42:40.293Z,0
2019-04-03T03:43:40.205Z,0
2019-04-03T03:44:43.033Z,0
2019-04-03T03:45:40.469Z,0
2019-04-03T03:46:41.638Z,0
2019-04-03T03:47:40.476Z,0
2019-04-03T03:48:43.552Z,0
2019-04-03T03:49:40.678Z,0
2019-04-03T03:50:41.641Z,0
2019-04-03T03:51:40.667Z,0
2019-04-03T03:52:40.658Z,0
2019-04-03T03:53:43.555Z,0
2019-04-03T03:54:40.983Z,0
2019-04-03T03:55:42.027Z,0
2019-04-03T03:56:40.944Z,0
2019-04-03T03:57:41.091Z,0
2019-04-03T03:58:44.526Z,0
2019-04-03T03:59:41.817Z,0
2019-04-03T04:00:42.396Z,0
2019-04-03T04:01:42.728Z,0
2019-04-03T04:02:43.937Z,0
2019-04-03T04:03:42.209Z,0
2019-04-03T04:04:41.854Z,0
2019-04-03T04:05:41.863Z,0
2019-04-03T04:06:42.849Z,0
2019-04-03T04:07:41.833Z,0
2019-04-03T04:08:44.007Z,0
2019-04-03T04:09:42.201Z,0
2019-04-03T04:10:42.898Z,0
2019-04-03T04:11:41.974Z,0
2019-04-03T04:12:42.591Z,0
2019-04-03T04:13:42.800Z,0
2019-04-03T04:14:42.338Z,0
2019-04-03T04:15:43.320Z,0
2019-04-03T04:16:42.390Z,0
2019-04-03T04:17:42.520Z,0
2019-04-03T04:18:43.538Z,0
2019-04-03T04:19:43.816Z,0
2019-04-03T04:20:42.565Z,0
2019-04-03T04:21:44.302Z,0
2019-04-03T04:22:42.885Z,0
2019-04-03T04:23:42.918Z,0
2019-04-03T04:24:44.008Z,0
2019-04-03T04:25:43.948Z,0
2019-04-03T04:26:43.187Z,0
2019-04-03T04:27:43.270Z,0
2019-04-03T04:28:43.154Z,0
2019-04-03T04:29:43.324Z,0
2019-04-03T04:30:43.331Z,0
2019-04-03T04:31:44.046Z,0
2019-04-03T04:32:45.540Z,0
2019-04-03T04:33:43.638Z,0
2019-04-03T04:34:43.790Z,1
2019-04-03T04:35:44.131Z,1
2019-04-03T04:36:44.808Z,1
2019-04-03T04:37:44.915Z,1
2019-04-03T04:38:45.026Z,1
2019-04-03T04:39:44.056Z,1
2019-04-03T04:40:44.186Z,2
2019-04-03T04:41:44.272Z,2
2019-04-03T04:42:44.383Z,2
2019-04-03T04:43:44.483Z,2
2019-04-03T04:44:44.597Z,2
2019-04-03T04:45:44.691Z,3
2019-04-03T04:46:46.003Z,4
2019-04-03T04:47:46.381Z,6
2019-04-03T04:48:44.927Z,7
2019-04-03T04:49:45.035Z,10
2019-04-03T04:50:45.170Z,13
2019-04-03T04:51:46.270Z,16
2019-04-03T04:52:46.370Z,18
2019-04-03T04:53:45.458Z,19
2019-04-03T04:54:45.567Z,23
2019-04-03T04:55:45.703Z,27
2019-04-03T04:56:45.844Z,33
2019-04-03T04:57:45.960Z,36
2019-04-03T04:58:45.958Z,39
2019-04-03T04:59:46.090Z,42
2019-04-03T05:00:47.358Z,46
2019-04-03T05:01:46.993Z,47
2019-04-03T05:02:46.264Z,46
2019-04-03T05:03:46.364Z,46
2019-04-03T05:04:46.650Z,46
2019-04-03T05:05:47.615Z,42
2019-04-03T05:06:47.725Z,43
2019-04-03T05:07:46.913Z,50
2019-04-03T05:08:46.948Z,53
2019-04-03T05:09:47.089Z,57
2019-04-03T05:10:48.685Z,59
2019-04-03T05:11:47.331Z,63
2019-04-03T05:12:47.448Z,68
2019-04-03T05:13:47.550Z,73
2019-04-03T05:14:48.842Z,83
2019-04-03T05:15:47.809Z,92
2019-04-03T05:16:47.903Z,99
2019-04-03T05:17:50.482Z,102
2019-04-03T05:18:49.107Z,106
2019-04-03T05:19:49.574Z,113
2019-04-03T05:20:48.798Z,122
2019-04-03T05:21:48.505Z,123
2019-04-03T05:22:48.585Z,133
2019-04-03T05:23:48.666Z,155
2019-04-03T05:24:49.769Z,158
2019-04-03T05:25:50.067Z,164
2019-04-03T05:26:49.965Z,158
2019-04-03T05:27:49.079Z,150
2019-04-03T05:28:55.812Z,145
2019-04-03T05:29:49.383Z,140
2019-04-03T05:30:49.373Z,141
2019-04-03T05:31:49.594Z,145
2019-04-03T05:32:49.682Z,150
2019-04-03T05:33:49.846Z,164
2019-04-03T05:34:49.849Z,175
2019-04-03T05:35:49.949Z,188
2019-04-03T05:36:50.043Z,199
2019-04-03T05:37:50.827Z,212
2019-04-03T05:38:50.990Z,217
2019-04-03T05:39:50.369Z,234
2019-04-03T05:40:50.585Z,252
2019-04-03T05:41:50.592Z,263
2019-04-03T05:42:50.691Z,274
2019-04-03T05:43:51.785Z,252
2019-04-03T05:44:51.932Z,240
2019-04-03T05:45:50.881Z,248
2019-04-03T05:46:50.994Z,252
2019-04-03T05:47:51.121Z,246
2019-04-03T05:48:51.192Z,259
2019-04-03T05:49:55.227Z,278
2019-04-03T05:50:51.458Z,302
2019-04-03T05:51:51.553Z,334
2019-04-03T05:52:51.650Z,376
2019-04-03T05:53:53.752Z,429
2019-04-03T05:54:51.965Z,445
2019-04-03T05:55:51.947Z,460
2019-04-03T05:56:52.172Z,492
2019-04-03T05:57:52.222Z,580
2019-04-03T05:58:55.863Z,659
2019-04-03T06:00:00.262Z,708
2019-04-03T06:01:03.081Z,800
2019-04-03T06:01:53.434Z,832
2019-04-03T06:02:54.091Z,855
2019-04-03T06:03:52.639Z,892
2019-04-03T06:04:52.943Z,977
2019-04-03T06:05:52.740Z,1009
2019-04-03T06:06:52.852Z,985
2019-04-03T06:07:52.832Z,856
2019-04-03T06:08:53.022Z,819
2019-04-03T06:09:53.814Z,841
2019-04-03T06:10:53.027Z,892
2019-04-03T06:11:54.050Z,1027
2019-04-03T06:12:53.100Z,1031
2019-04-03T06:13:53.123Z,1031
2019-04-03T06:14:53.148Z,914
2019-04-03T06:15:53.755Z,918
2019-04-03T06:16:55.444Z,902
2019-04-03T06:17:54.939Z,851
2019-04-03T06:18:53.492Z,859
2019-04-03T06:19:53.614Z,856
2019-04-03T06:20:53.810Z,928
2019-04-03T06:21:53.775Z,1047
2019-04-03T06:22:53.818Z,1042
2019-04-03T06:23:54.005Z,1037
2019-04-03T06:24:55.991Z,980
2019-04-03T06:25:54.033Z,969
2019-04-03T06:26:54.157Z,948
2019-04-03T06:27:54.303Z,952
2019-04-03T06:28:54.397Z,905
2019-04-03T06:29:54.998Z,759
2019-04-03T06:30:56.410Z,639
2019-04-03T06:31:55.877Z,640
2019-04-03T06:32:56.458Z,624
2019-04-03T06:33:54.833Z,693
2019-04-03T06:34:55.164Z,715
2019-04-03T06:35:54.974Z,770
2019-04-03T06:36:55.103Z,760
2019-04-03T06:37:55.242Z,771
2019-04-03T06:38:55.999Z,875
2019-04-03T06:39:55.724Z,940
2019-04-03T06:40:55.484Z,1043
2019-04-03T06:41:55.639Z,1046
2019-04-03T06:42:55.655Z,1060
2019-04-03T06:43:55.693Z,1124
2019-04-03T06:44:55.800Z,1269
2019-04-03T06:45:57.507Z,1246
2019-04-03T06:46:55.859Z,1237
2019-04-03T06:47:55.889Z,1257
2019-04-03T06:48:57.031Z,1250
2019-04-03T06:49:56.969Z,1129
2019-04-03T06:50:56.027Z,1242
2019-04-03T06:51:56.082Z,1247
2019-04-03T06:52:56.386Z,1265
2019-04-03T06:53:58.701Z,1276
2019-04-03T06:54:57.282Z,1288
2019-04-03T06:55:56.426Z,1299
2019-04-03T06:56:57.300Z,1292
2019-04-03T06:57:56.354Z,1270
2019-04-03T06:58:56.395Z,1164
2019-04-03T06:59:56.759Z,1136
2019-04-03T07:00:56.510Z,1142
2019-04-03T07:01:56.555Z,1140
2019-04-03T07:02:56.618Z,1166
2019-04-03T07:03:56.648Z,1253
2019-04-03T07:04:57.751Z,1245
2019-04-03T07:05:56.765Z,1122
2019-04-03T07:06:56.842Z,1018
2019-04-03T07:07:56.971Z,928
2019-04-03T07:08:58.237Z,805
2019-04-03T07:09:57.314Z,727
2019-04-03T07:10:58.213Z,693
2019-04-03T07:11:57.720Z,756
2019-04-03T07:12:57.474Z,815
2019-04-03T07:13:57.872Z,805
2019-04-03T07:14:57.716Z,805
2019-04-03T07:15:57.749Z,818
2019-04-03T07:17:00.149Z,845
2019-04-03T07:18:00.884Z,910
2019-04-03T07:18:58.031Z,1001
2019-04-03T07:20:11.793Z,1095
2019-04-03T07:20:59.359Z,1183
2019-04-03T07:21:58.166Z,1248
2019-04-03T07:22:59.094Z,1275
2019-04-03T07:24:00.076Z,1329
2019-04-03T07:24:58.319Z,1332
2019-04-03T07:25:58.372Z,1337
2019-04-03T07:26:58.421Z,1335
2019-04-03T07:27:58.462Z,1428
2019-04-03T07:28:59.564Z,1412
2019-04-03T07:29:58.613Z,1411
2019-04-03T07:30:58.690Z,1428
2019-04-03T07:31:58.706Z,1558
2019-04-03T07:32:58.754Z,1743
2019-04-03T07:34:01.713Z,1891
2019-04-03T07:34:58.844Z,2014
2019-04-03T07:35:59.847Z,2045
2019-04-03T07:36:59.868Z,2016
2019-04-03T07:37:59.031Z,2009
2019-04-03T07:38:59.108Z,2003
2019-04-03T07:40:00.103Z,2011
2019-04-03T07:40:59.058Z,2067
2019-04-03T07:41:59.334Z,2169
2019-04-03T07:42:59.174Z,2320
2019-04-03T07:43:59.353Z,2605
2019-04-03T07:44:59.744Z,2702
2019-04-03T07:45:59.336Z,2858
2019-04-03T07:46:59.373Z,3027
2019-04-03T07:47:59.409Z,3187
2019-04-03T07:49:00.131Z,3268
2019-04-03T07:50:00.508Z,3102
2019-04-03T07:51:00.549Z,2948
2019-04-03T07:51:59.593Z,2709
2019-04-03T07:52:59.744Z,2556
2019-04-03T07:53:59.717Z,2255
2019-04-03T07:54:59.919Z,2114
2019-04-03T07:55:59.841Z,1892
2019-04-03T07:56:59.886Z,1750
2019-04-03T07:58:01.435Z,1645
2019-04-03T07:59:02.632Z,1610
2019-04-03T08:00:00.049Z,1653
2019-04-03T08:01:00.091Z,1778
2019-04-03T08:02:01.153Z,1876
2019-04-03T08:03:01.342Z,2063
2019-04-03T08:04:00.233Z,2128
2019-04-03T08:05:00.908Z,2248
2019-04-03T08:06:00.974Z,2229
2019-04-03T08:07:00.410Z,2227
2019-04-03T08:08:01.694Z,2341
2019-04-03T08:09:07.174Z,2509
2019-04-03T08:10:01.693Z,2608
2019-04-03T08:11:01.842Z,2587
2019-04-03T08:12:03.167Z,2444
2019-04-03T08:13:00.667Z,2356
2019-04-03T08:14:00.629Z,2438
2019-04-03T08:15:01.733Z,2347
2019-04-03T08:16:01.757Z,2384
2019-04-03T08:17:00.818Z,2551
2019-04-03T08:18:00.900Z,2692
2019-04-03T08:19:00.965Z,2999
2019-04-03T08:20:01.097Z,3069
2019-04-03T08:21:02.084Z,3072
2019-04-03T08:22:01.937Z,3030
2019-04-03T08:23:01.112Z,2891
2019-04-03T08:24:01.143Z,2918
2019-04-03T08:25:01.188Z,3155
2019-04-03T08:26:02.216Z,3454
2019-04-03T08:27:02.253Z,3803
2019-04-03T08:28:01.348Z,3827
2019-04-03T08:29:02.226Z,3506
2019-04-03T08:30:01.445Z,3217
2019-04-03T08:31:01.478Z,3149
2019-04-03T08:32:02.576Z,3089
2019-04-03T08:33:01.635Z,2876
2019-04-03T08:34:14.489Z,2573
2019-04-03T08:35:04.322Z,2158
2019-04-03T08:36:02.698Z,1867
2019-04-03T08:37:02.711Z,1793
2019-04-03T08:38:02.729Z,1668
2019-04-03T08:39:02.751Z,1613
2019-04-03T08:40:02.128Z,1588
2019-04-03T08:41:03.720Z,1593
2019-04-03T08:42:01.900Z,1602
2019-04-03T08:43:01.993Z,1530
2019-04-03T08:44:03.272Z,1450
2019-04-03T08:45:02.018Z,1326
2019-04-03T08:46:02.055Z,1264
2019-04-03T08:47:02.095Z,1254
2019-04-03T08:48:05.893Z,1260
2019-04-03T08:49:02.149Z,1313
2019-04-03T08:50:02.524Z,1288
2019-04-03T08:51:03.455Z,1243
2019-04-03T08:52:03.640Z,1268
2019-04-03T08:53:03.331Z,1252
2019-04-03T08:54:02.345Z,1234
2019-04-03T08:55:02.677Z,1354
2019-04-03T08:56:03.439Z,1435
2019-04-03T08:57:02.497Z,1753
2019-04-03T08:58:02.548Z,2086
2019-04-03T08:59:02.596Z,2616
2019-04-03T09:00:03.900Z,3243
2019-04-03T09:01:04.484Z,4067
2019-04-03T09:02:03.108Z,4549
2019-04-03T09:03:04.370Z,5100
2019-04-03T09:04:03.778Z,5461
2019-04-03T09:05:02.849Z,6058
2019-04-03T09:06:03.887Z,6441
2019-04-03T09:07:02.993Z,6452
2019-04-03T09:08:03.177Z,6535
2019-04-03T09:09:03.079Z,7063
2019-04-03T09:10:03.199Z,7306
2019-04-03T09:11:05.010Z,7186
2019-04-03T09:12:03.830Z,7061
2019-04-03T09:13:15.708Z,6573
2019-04-03T09:14:04.568Z,5819
2019-04-03T09:15:03.416Z,4957
2019-04-03T09:16:03.455Z,4318
2019-04-03T09:17:03.585Z,4409
2019-04-03T09:18:05.326Z,4772
2019-04-03T09:19:03.549Z,4843
2019-04-03T09:20:03.602Z,4764
2019-04-03T09:21:04.980Z,4630
2019-04-03T09:22:04.659Z,4742
2019-04-03T09:23:03.696Z,4889
2019-04-03T09:24:03.762Z,5189
2019-04-03T09:25:03.842Z,5504
2019-04-03T09:26:04.855Z,5738
2019-04-03T09:27:03.900Z,5983
2019-04-03T09:28:04.032Z,6322
2019-04-03T09:29:03.954Z,6553
2019-04-03T09:30:05.164Z,6680
2019-04-03T09:31:05.054Z,6718
2019-04-03T09:32:04.091Z,6594
2019-04-03T09:33:04.126Z,6496
2019-04-03T09:34:04.285Z,6377
2019-04-03T09:35:04.249Z,6879
2019-04-03T09:36:04.544Z,7489
2019-04-03T09:37:06.304Z,8047
2019-04-03T09:38:04.416Z,8674
2019-04-03T09:39:04.708Z,9329
2019-04-03T09:40:05.545Z,9873
2019-04-03T09:41:05.602Z,10016
2019-04-03T09:42:04.676Z,9617
2019-04-03T09:43:04.726Z,9861
2019-04-03T09:44:04.869Z,10406
2019-04-03T09:45:05.041Z,11060
2019-04-03T09:46:04.945Z,11101
2019-04-03T09:47:05.164Z,12096
2019-04-03T09:48:06.102Z,12169
2019-04-03T09:49:05.699Z,11800
2019-04-03T09:50:05.487Z,11656
2019-04-03T09:51:08.574Z,11568
2019-04-03T09:52:06.220Z,11590
2019-04-03T09:53:05.280Z,10986
2019-04-03T09:54:05.327Z,9940
2019-04-03T09:55:05.394Z,8477
2019-04-03T09:56:07.886Z,8593
2019-04-03T09:57:05.862Z,9946
2019-04-03T09:58:05.707Z,10933
2019-04-03T09:59:06.595Z,10838
2019-04-03T10:00:07.943Z,9364
2019-04-03T10:01:05.635Z,8864
2019-04-03T10:02:06.965Z,8330
2019-04-03T10:03:06.006Z,7748
2019-04-03T10:04:05.926Z,7078
2019-04-03T10:05:05.944Z,6812
2019-04-03T10:06:06.128Z,6330
2019-04-03T10:07:06.117Z,5559
2019-04-03T10:08:08.284Z,5195
2019-04-03T10:09:06.455Z,4439
2019-04-03T10:10:06.324Z,4372
2019-04-03T10:11:07.384Z,4401
2019-04-03T10:12:07.429Z,4424
2019-04-03T10:13:06.490Z,4384
2019-04-03T10:14:06.565Z,5094
2019-04-03T10:15:06.657Z,5560
2019-04-03T10:16:07.692Z,5305
2019-04-03T10:17:07.261Z,5615
2019-04-03T10:18:09.092Z,5959
2019-04-03T10:19:07.046Z,6308
2019-04-03T10:20:07.088Z,6310
2019-04-03T10:21:07.982Z,6298
2019-04-03T10:22:08.020Z,6381
2019-04-03T10:23:07.083Z,6471
2019-04-03T10:24:07.126Z,6471
2019-04-03T10:25:07.199Z,6475
2019-04-03T10:26:08.360Z,6495
2019-04-03T10:27:07.317Z,6567
2019-04-03T10:28:07.371Z,6566
2019-04-03T10:29:07.429Z,6931
2019-04-03T10:30:08.565Z,7003
2019-04-03T10:31:07.610Z,6976
2019-04-03T10:32:08.019Z,7020
2019-04-03T10:33:07.732Z,7080
2019-04-03T10:34:07.766Z,6974
2019-04-03T10:35:08.200Z,6847
2019-04-03T10:36:10.170Z,6627
2019-04-03T10:37:09.143Z,6648
2019-04-03T10:38:07.935Z,6645
2019-04-03T10:39:09.060Z,6625
2019-04-03T10:40:09.082Z,6750
2019-04-03T10:41:10.498Z,6839
2019-04-03T10:42:08.166Z,6833
2019-04-03T10:43:08.209Z,6793
2019-04-03T10:44:09.683Z,6803
2019-04-03T10:45:08.357Z,6966
2019-04-03T10:46:08.658Z,6993
2019-04-03T10:47:09.495Z,6598
2019-04-03T10:48:09.520Z,6485
2019-04-03T10:49:08.557Z,6540
2019-04-03T10:50:08.590Z,6646
2019-04-03T10:51:09.237Z,6642
2019-04-03T10:52:08.710Z,6552
2019-04-03T10:53:08.790Z,6646
2019-04-03T10:54:09.843Z,6663
2019-04-03T10:55:09.155Z,6676
2019-04-03T10:56:08.942Z,6574
2019-04-03T10:57:08.977Z,6857
2019-04-03T10:58:09.164Z,7283
2019-04-03T10:59:12.309Z,7670
2019-04-03T11:00:10.236Z,8098
2019-04-03T11:01:09.190Z,8379
2019-04-03T11:02:09.235Z,8773
2019-04-03T11:03:09.471Z,9136
2019-04-03T11:04:09.356Z,8760
2019-04-03T11:05:09.403Z,8744
2019-04-03T11:06:09.539Z,8653
2019-04-03T11:07:09.529Z,8601
2019-04-03T11:08:09.600Z,8355
2019-04-03T11:09:10.194Z,8095
2019-04-03T11:10:10.892Z,8256
2019-04-03T11:11:09.747Z,8651
2019-04-03T11:12:10.598Z,8666
2019-04-03T11:13:10.047Z,8111
2019-04-03T11:14:09.908Z,7814
2019-04-03T11:15:11.205Z,7804
2019-04-03T11:16:10.394Z,8136
2019-04-03T11:17:10.389Z,8823
2019-04-03T11:18:10.089Z,9064
2019-04-03T11:19:11.201Z,9555
2019-04-03T11:20:10.846Z,8968
2019-04-03T11:21:10.866Z,8664
2019-04-03T11:22:10.506Z,8632
2019-04-03T11:23:11.093Z,9271
2019-04-03T11:24:11.419Z,9798
2019-04-03T11:25:13.338Z,11402
2019-04-03T11:26:10.554Z,11088
2019-04-03T11:27:11.581Z,10167
2019-04-03T11:28:11.649Z,8857
2019-04-03T11:29:10.962Z,8837
2019-04-03T11:30:11.750Z,9372
2019-04-03T11:31:23.853Z,8976
2019-04-03T11:32:11.909Z,8558
2019-04-03T11:33:13.470Z,8197
2019-04-03T11:34:10.868Z,8330
2019-04-03T11:35:10.922Z,8773
2019-04-03T11:36:12.225Z,9545
2019-04-03T11:37:11.044Z,10582
2019-04-03T11:38:13.656Z,11528
2019-04-03T11:39:15.123Z,11545
2019-04-03T11:40:11.249Z,11374
2019-04-03T11:41:15.204Z,11994
2019-04-03T11:42:22.649Z,11675
2019-04-03T11:43:12.348Z,11437
2019-04-03T11:44:11.670Z,10922
2019-04-03T11:45:11.455Z,10813
2019-04-03T11:46:11.658Z,11074
2019-04-03T11:47:13.035Z,11551
2019-04-03T11:48:11.639Z,12222
2019-04-03T11:49:11.670Z,12595
2019-04-03T11:50:11.704Z,13764
2019-04-03T11:51:11.971Z,16074
2019-04-03T11:52:11.822Z,16233
2019-04-03T11:53:11.860Z,19928
2019-04-03T11:54:11.897Z,20400
2019-04-03T11:55:12.279Z,25832
2019-04-03T11:56:13.244Z,36352
2019-04-03T11:57:12.175Z,52568
2019-04-03T11:58:12.556Z,42712
2019-04-03T11:59:13.220Z,51592
2019-04-03T12:00:13.379Z,63296
2019-04-03T12:01:12.390Z,35624
2019-04-03T12:02:12.688Z,30952
2019-04-03T12:03:12.514Z,64848
2019-04-03T12:04:13.393Z,54176
2019-04-03T12:05:13.117Z,41640
2019-04-03T12:06:12.733Z,65535
2019-04-03T12:07:14.019Z,36280
2019-04-03T12:08:13.815Z,46168
2019-04-03T12:09:12.867Z,42080
2019-04-03T12:10:12.917Z,57048
2019-04-03T12:11:13.002Z,35688
2019-04-03T12:12:13.043Z,34416
2019-04-03T12:13:14.323Z,25568
2019-04-03T12:14:13.108Z,22064
2019-04-03T12:15:15.769Z,22960
2019-04-03T12:16:13.226Z,37176
2019-04-03T12:17:14.539Z,42544
2019-04-03T12:18:13.302Z,25480
2019-04-03T12:19:13.380Z,23008
2019-04-03T12:20:15.209Z,20688
2019-04-03T12:21:14.348Z,13149
2019-04-03T12:22:13.554Z,14388
2019-04-03T12:23:14.921Z,11928
2019-04-03T12:24:15.037Z,11983
2019-04-03T12:25:13.984Z,13390
2019-04-03T12:26:13.824Z,18600
2019-04-03T12:27:14.650Z,17672
2019-04-03T12:28:14.148Z,17616
2019-04-03T12:29:13.984Z,15433
2019-04-03T12:30:14.074Z,12525
2019-04-03T12:31:14.132Z,10757
2019-04-03T12:32:14.175Z,9808
2019-04-03T12:33:14.232Z,8027
2019-04-03T12:34:14.262Z,6399
2019-04-03T12:35:15.334Z,5525
2019-04-03T12:36:14.705Z,4543
2019-04-03T12:37:16.057Z,3906
2019-04-03T12:38:15.986Z,3734
2019-04-03T12:39:14.624Z,4188
2019-04-03T12:40:14.825Z,5862
2019-04-03T12:41:14.787Z,6764
2019-04-03T12:42:16.676Z,8671
2019-04-03T12:43:14.874Z,8663
2019-04-03T12:44:14.919Z,7951
2019-04-03T12:45:17.338Z,7560
2019-04-03T12:46:16.258Z,7197
2019-04-03T12:47:15.122Z,6967
2019-04-03T12:48:17.315Z,6858
2019-04-03T12:49:15.412Z,7733
2019-04-03T12:50:16.495Z,8432
2019-04-03T12:51:19.702Z,7604
2019-04-03T12:52:15.684Z,8159
2019-04-03T12:53:17.154Z,8370
2019-04-03T12:54:16.036Z,8172
2019-04-03T12:55:16.148Z,8062
2019-04-03T12:56:17.228Z,8151
2019-04-03T12:57:16.125Z,8247
2019-04-03T12:58:16.165Z,8653
2019-04-03T12:59:19.584Z,8773
2019-04-03T13:00:16.293Z,9232
2019-04-03T13:01:17.650Z,9625
2019-04-03T13:02:17.309Z,9758
2019-04-03T13:03:16.808Z,9757
2019-04-03T13:04:17.671Z,10109
2019-04-03T13:05:17.608Z,10148
2019-04-03T13:06:16.904Z,10190
2019-04-03T13:07:16.736Z,10528
2019-04-03T13:08:19.545Z,10640
2019-04-03T13:09:16.833Z,10742
2019-04-03T13:10:16.955Z,11226
2019-04-03T13:11:18.428Z,11705
2019-04-03T13:12:16.980Z,12030
2019-04-03T13:13:18.139Z,12692
2019-04-03T13:14:24.772Z,13472
2019-04-03T13:15:18.432Z,15541
2019-04-03T13:16:17.119Z,17256
2019-04-03T13:17:17.192Z,20104
2019-04-03T13:18:17.261Z,22064
2019-04-03T13:19:17.415Z,23616
2019-04-03T13:20:17.721Z,21720
2019-04-03T13:21:17.562Z,22104
2019-04-03T13:22:18.221Z,20144
2019-04-03T13:23:17.996Z,21336
2019-04-03T13:24:17.792Z,19776
2019-04-03T13:25:19.642Z,17272
2019-04-03T13:26:17.720Z,15388
2019-04-03T13:27:17.818Z,15055
2019-04-03T13:28:18.220Z,15895
2019-04-03T13:29:20.647Z,17744
2019-04-03T13:30:17.945Z,25104
2019-04-03T13:31:18.005Z,26152
2019-04-03T13:32:18.638Z,24104
2019-04-03T13:33:18.122Z,21280
2019-04-03T13:34:18.193Z,20440
2019-04-03T13:35:18.707Z,20312
2019-04-03T13:36:19.196Z,21136
2019-04-03T13:37:18.671Z,19320
2019-04-03T13:38:18.519Z,21160
2019-04-03T13:39:19.859Z,18200
2019-04-03T13:40:18.824Z,16648
2019-04-03T13:41:18.932Z,16052
2019-04-03T13:42:18.927Z,15549
2019-04-03T13:43:20.457Z,17336
2019-04-03T13:44:18.806Z,19840
2019-04-03T13:45:19.828Z,20408
2019-04-03T13:46:20.111Z,17664
2019-04-03T13:47:18.965Z,15406
2019-04-03T13:48:19.029Z,12721
2019-04-03T13:49:19.586Z,11649